Time;durP1;ratioP1;P1;durP2;ratioP2;P2;SDS_P1;SDS_P2;PMS_P1;PMS_P2;Temp;Humidity;BMP_temperature;BMP_pressure;BME280_temperature;BME280_humidity;BME280_pressure;Samples;Min_cycle;Max_cycle;Signal;HPM_P1;HPM_P2
2022/04/15 00:01:36;;;;;;;19.42;11.43;;;;;;;-144.47;100.00;61586.06;6180998;23;20012;-74
2022/04/15 00:04:03;;;;;;;17.20;10.90;;;;;;;-144.47;100.00;61586.06;6180449;23;20310;-75
2022/04/15 00:06:28;;;;;;;14.52;10.05;;;;;;;-144.47;100.00;61586.06;6154312;23;20017;-74
2022/04/15 00:08:54;;;;;;;12.27;9.07;;;;;;;-144.47;100.00;61586.06;6180564;23;20442;-77
2022/04/15 00:11:20;;;;;;;11.82;9.02;;;;;;;-144.47;100.00;61586.06;6180925;23;20016;-74
2022/04/15 00:13:45;;;;;;;10.68;8.45;;;;;;;-144.47;100.00;61586.06;6180784;23;20056;-75
2022/04/15 00:16:11;;;;;;;15.30;8.07;;;;;;;-144.47;100.00;61586.06;6180461;23;20399;-75
2022/04/15 00:18:37;;;;;;;16.58;8.52;;;;;;;-144.47;100.00;61586.06;6180688;23;20041;-76
2022/04/15 00:21:03;;;;;;;13.20;9.07;;;;;;;-144.47;100.00;61586.06;6180496;23;20012;-75
2022/04/15 00:23:30;;;;;;;14.05;8.23;;;;;;;-144.47;100.00;61586.06;6180954;23;20016;-73
2022/04/15 00:25:57;;;;;;;14.60;9.02;;;;;;;-144.47;100.00;61586.06;6181110;23;20013;-74
2022/04/15 00:28:23;;;;;;;14.00;8.32;;;;;;;-144.47;100.00;61586.06;6181174;23;20078;-73
2022/04/15 00:30:49;;;;;;;10.45;8.57;;;;;;;-144.47;100.00;61586.06;6181153;23;20272;-74
2022/04/15 00:33:15;;;;;;;12.70;8.30;;;;;;;-144.47;100.00;61586.06;6180149;23;20015;-74
2022/04/15 00:35:41;;;;;;;17.10;8.50;;;;;;;-144.47;100.00;61586.06;6180379;23;20076;-73
2022/04/15 00:38:06;;;;;;;11.18;7.28;;;;;;;-144.47;100.00;61586.06;6180211;23;20013;-74
2022/04/15 00:40:32;;;;;;;11.10;7.78;;;;;;;-144.47;100.00;61586.06;6180857;23;20043;-75
2022/04/15 00:42:57;;;;;;;14.73;7.88;;;;;;;-144.47;100.00;61586.06;6182278;23;20434;-75
2022/04/15 00:45:23;;;;;;;11.88;7.43;;;;;;;-144.47;100.00;61586.06;6182065;23;20071;-76
2022/04/15 00:47:56;;;;;;;12.68;7.57;;;;;;;-144.47;100.00;61586.06;6181615;23;20028;-75
2022/04/15 00:50:26;;;;;;;11.45;7.32;;;;;;;-144.47;100.00;61586.06;6181794;23;20027;-74
2022/04/15 00:52:54;;;;;;;12.85;7.03;;;;;;;-144.47;100.00;61586.06;6182529;23;20087;-76
2022/04/15 00:55:23;;;;;;;14.00;8.02;;;;;;;-144.47;100.00;61586.06;6180691;23;20013;-75
2022/04/15 00:57:51;;;;;;;14.05;8.85;;;;;;;-144.47;100.00;61586.06;6180617;23;20025;-75
2022/04/15 01:00:18;;;;;;;10.70;7.85;;;;;;;-144.47;100.00;61586.06;6179387;23;20084;-75
2022/04/15 01:02:44;;;;;;;13.13;8.02;;;;;;;-144.47;100.00;61586.06;6179457;23;20017;-75
2022/04/15 01:05:12;;;;;;;9.63;7.47;;;;;;;-144.47;100.00;61586.06;6180767;23;20013;-75
2022/04/15 01:07:43;;;;;;;11.65;8.13;;;;;;;-144.47;100.00;61586.06;6182672;23;20009;-75
2022/04/15 01:10:13;;;;;;;15.60;8.45;;;;;;;-144.47;100.00;61586.06;6182378;23;20331;-74
2022/04/15 01:12:45;;;;;;;7.63;6.75;;;;;;;-144.47;100.00;61586.06;6182688;23;20013;-73
2022/04/15 01:15:13;;;;;;;8.88;7.63;;;;;;;-144.47;100.00;61586.06;6182523;23;20024;-76
2022/04/15 01:17:39;;;;;;;9.95;7.15;;;;;;;-144.47;100.00;61586.06;6182972;23;20016;-73
2022/04/15 01:20:08;;;;;;;11.07;7.82;;;;;;;-144.47;100.00;61586.06;6182162;23;19997;-74
2022/04/15 01:22:41;;;;;;;8.35;7.47;;;;;;;-144.47;100.00;61586.06;6182410;23;20013;-74
2022/04/15 01:25:07;;;;;;;10.48;7.65;;;;;;;-144.47;100.00;61586.06;6182285;23;20465;-74
2022/04/15 01:27:37;;;;;;;8.50;7.30;;;;;;;-144.47;100.00;61586.06;6185072;23;20047;-75
2022/04/15 01:30:04;;;;;;;8.65;7.82;;;;;;;-144.47;100.00;61586.06;6185046;23;20016;-74
2022/04/15 01:32:30;;;;;;;12.70;8.13;;;;;;;-144.47;100.00;61586.06;6184831;23;20023;-73
2022/04/15 01:34:55;;;;;;;13.05;8.48;;;;;;;-144.47;100.00;61586.06;6183127;23;20005;-77
2022/04/15 01:37:23;;;;;;;8.38;7.53;;;;;;;-144.47;100.00;61586.06;6182168;23;20021;-75
2022/04/15 01:39:49;;;;;;;11.00;7.57;;;;;;;-144.47;100.00;61586.06;6181876;23;20032;-74
2022/04/15 01:42:15;;;;;;;11.30;7.30;;;;;;;-144.47;100.00;61586.06;6155055;23;20012;-74
2022/04/15 01:44:41;;;;;;;14.85;8.27;;;;;;;-144.47;100.00;61586.06;6181873;23;20009;-74
2022/04/15 01:47:07;;;;;;;15.32;7.25;;;;;;;-144.47;100.00;61586.06;6180992;23;20098;-75
2022/04/15 01:49:32;;;;;;;11.48;8.35;;;;;;;-144.47;100.00;61586.06;6182014;23;20199;-74
2022/04/15 01:51:58;;;;;;;14.05;8.20;;;;;;;-144.47;100.00;61586.06;6181651;23;20035;-74
2022/04/15 01:54:23;;;;;;;11.40;8.00;;;;;;;-144.47;100.00;61586.06;6181421;23;20433;-76
2022/04/15 01:56:49;;;;;;;11.80;7.57;;;;;;;-144.47;100.00;61586.06;6181697;23;20005;-75
2022/04/15 01:59:15;;;;;;;10.07;7.10;;;;;;;-144.47;100.00;61586.06;6181212;23;20009;-74
2022/04/15 02:01:40;;;;;;;12.38;7.72;;;;;;;-144.47;100.00;61586.06;6180861;23;20008;-76
2022/04/15 02:04:06;;;;;;;10.73;7.53;;;;;;;-144.47;100.00;61586.06;6181111;23;20016;-74
2022/04/15 02:06:31;;;;;;;8.05;7.25;;;;;;;-144.47;100.00;61586.06;6154882;23;20020;-76
2022/04/15 02:08:57;;;;;;;13.13;7.68;;;;;;;-144.47;100.00;61586.06;6154839;23;20454;-75
2022/04/15 02:11:22;;;;;;;8.25;7.25;;;;;;;-144.47;100.00;61586.06;6181244;23;20024;-75
2022/04/15 02:13:48;;;;;;;10.43;7.80;;;;;;;-144.47;100.00;61586.06;6181641;23;20024;-75
2022/04/15 02:16:13;;;;;;;11.43;7.78;;;;;;;-144.47;100.00;61586.06;6181204;23;20077;-74
2022/04/15 02:18:39;;;;;;;17.10;8.63;;;;;;;-144.47;100.00;61586.06;6182305;23;20489;-74
2022/04/15 02:21:04;;;;;;;11.82;7.70;;;;;;;-144.47;100.00;61586.06;6181556;23;20051;-74
2022/04/15 02:23:30;;;;;;;13.00;7.63;;;;;;;-144.47;100.00;61586.06;6180792;23;20017;-74
2022/04/15 02:25:55;;;;;;;10.25;7.80;;;;;;;-144.47;100.00;61586.06;6182463;23;20068;-76
2022/04/15 02:28:20;;;;;;;10.90;8.20;;;;;;;-144.47;100.00;61586.06;6181878;23;20285;-75
2022/04/15 02:30:49;;;;;;;10.80;8.27;;;;;;;-144.47;100.00;61586.06;6180377;23;20087;-75
2022/04/15 02:33:15;;;;;;;11.05;8.57;;;;;;;-144.47;100.00;61586.06;6181539;23;20009;-73
2022/04/15 02:35:41;;;;;;;13.98;8.32;;;;;;;-144.47;100.00;61586.06;6181865;23;20012;-75
2022/04/15 02:38:06;;;;;;;16.10;8.63;;;;;;;-144.47;100.00;61586.06;6181314;23;20005;-74
2022/04/15 02:40:32;;;;;;;15.68;8.13;;;;;;;-144.47;100.00;61586.06;6181439;23;20083;-76
2022/04/15 02:42:57;;;;;;;11.27;8.23;;;;;;;-144.47;100.00;61586.06;6181713;23;20071;-75
2022/04/15 02:45:23;;;;;;;11.73;8.75;;;;;;;-144.47;100.00;61586.06;6181606;23;20035;-75
2022/04/15 02:47:49;;;;;;;12.32;8.27;;;;;;;-144.47;100.00;61586.06;6181328;23;20092;-73
2022/04/15 02:50:14;;;;;;;13.32;9.30;;;;;;;-144.47;100.00;61586.06;6181352;23;20009;-75
2022/04/15 02:52:40;;;;;;;17.73;9.63;;;;;;;-144.47;100.00;61586.06;6181455;23;20018;-72
2022/04/15 02:55:06;;;;;;;11.90;8.52;;;;;;;-144.47;100.00;61586.06;6180693;23;20009;-74
2022/04/15 02:57:32;;;;;;;16.30;9.20;;;;;;;-144.47;100.00;61586.06;6155011;23;20005;-75
2022/04/15 02:59:58;;;;;;;14.27;9.25;;;;;;;-144.47;100.00;61586.06;6180964;23;20005;-74
2022/04/15 03:02:25;;;;;;;14.50;8.80;;;;;;;-144.47;100.00;61586.06;6181004;23;20020;-74
2022/04/15 03:04:50;;;;;;;12.20;8.85;;;;;;;-144.47;100.00;61586.06;6181045;23;20009;-75
2022/04/15 03:07:16;;;;;;;9.93;8.30;;;;;;;-144.47;100.00;61586.06;6181264;23;20020;-75
2022/04/15 03:09:41;;;;;;;13.77;8.55;;;;;;;-144.47;100.00;61586.06;6181342;23;20500;-74
2022/04/15 03:12:08;;;;;;;10.70;8.10;;;;;;;-144.47;100.00;61586.06;6180630;23;20040;-74
2022/04/15 03:14:33;;;;;;;13.35;8.65;;;;;;;-144.47;100.00;61586.06;6181181;23;20013;-74
2022/04/15 03:16:59;;;;;;;18.33;8.10;;;;;;;-144.47;100.00;61586.06;6180869;23;20012;-74
2022/04/15 03:19:24;;;;;;;11.73;7.55;;;;;;;-144.47;100.00;61586.06;6181116;23;20076;-75
2022/04/15 03:21:50;;;;;;;10.63;8.02;;;;;;;-144.47;100.00;61586.06;6155063;23;20079;-74
2022/04/15 03:24:15;;;;;;;9.93;7.30;;;;;;;-144.47;100.00;61586.06;6181557;23;20418;-71
2022/04/15 03:26:41;;;;;;;13.02;8.05;;;;;;;-144.47;100.00;61586.06;6181243;23;20016;-74
2022/04/15 03:29:06;;;;;;;13.30;7.53;;;;;;;-144.47;100.00;61586.06;6180467;23;20009;-75
2022/04/15 03:31:33;;;;;;;9.50;6.90;;;;;;;-144.47;100.00;61586.06;6180732;23;20037;-73
2022/04/15 03:33:59;;;;;;;11.93;7.38;;;;;;;-144.47;100.00;61586.06;6180895;23;20152;-74
2022/04/15 03:36:24;;;;;;;11.07;7.45;;;;;;;-144.47;100.00;61586.06;6181183;23;20695;-73
2022/04/15 03:38:50;;;;;;;10.85;7.68;;;;;;;-144.47;100.00;61586.06;6181239;23;20011;-74
2022/04/15 03:41:16;;;;;;;12.18;7.10;;;;;;;-144.47;100.00;61586.06;6181065;23;20339;-75
2022/04/15 03:43:42;;;;;;;9.93;7.47;;;;;;;-144.47;100.00;61586.06;6180670;23;20110;-73
2022/04/15 03:46:08;;;;;;;9.15;7.50;;;;;;;-144.47;100.00;61586.06;6180508;23;20029;-74
2022/04/15 03:48:34;;;;;;;9.90;7.72;;;;;;;-144.47;100.00;61586.06;6181011;23;20008;-74
2022/04/15 03:50:59;;;;;;;11.05;7.28;;;;;;;-144.47;100.00;61586.06;6180742;23;20445;-74
2022/04/15 03:53:25;;;;;;;9.32;7.28;;;;;;;-144.47;100.00;61586.06;6180715;23;20021;-75
2022/04/15 03:55:51;;;;;;;13.00;8.20;;;;;;;-144.47;100.00;61586.06;6180885;23;20074;-74
2022/04/15 03:58:16;;;;;;;12.65;9.32;;;;;;;-144.47;100.00;61586.06;6179176;23;20009;-74
2022/04/15 04:00:43;;;;;;;11.70;7.00;;;;;;;-144.47;100.00;61586.06;6180739;23;20023;-72
2022/04/15 04:03:08;;;;;;;9.30;8.05;;;;;;;-144.47;100.00;61586.06;6180746;23;20019;-74
2022/04/15 04:05:34;;;;;;;13.02;8.60;;;;;;;-144.47;100.00;61586.06;6181073;23;20084;-73
2022/04/15 04:07:59;;;;;;;13.52;8.20;;;;;;;-144.47;100.00;61586.06;6180861;23;20017;-74
2022/04/15 04:10:25;;;;;;;12.65;8.60;;;;;;;-144.47;100.00;61586.06;6180556;23;20025;-75
2022/04/15 04:12:51;;;;;;;10.77;8.10;;;;;;;-144.47;100.00;61586.06;6180291;23;20013;-74
2022/04/15 04:15:17;;;;;;;11.95;8.40;;;;;;;-144.47;100.00;61586.06;6153629;23;20086;-74
2022/04/15 04:17:43;;;;;;;10.52;8.05;;;;;;;-144.47;100.00;61586.06;6182548;23;20009;-75
2022/04/15 04:20:10;;;;;;;17.25;8.30;;;;;;;-144.47;100.00;61586.06;6182415;23;20016;-74
2022/04/15 04:22:36;;;;;;;13.10;8.68;;;;;;;-144.47;100.00;61586.06;6156341;23;20068;-73
2022/04/15 04:25:03;;;;;;;12.43;8.73;;;;;;;-144.47;100.00;61586.06;6182396;23;20005;-75
2022/04/15 04:27:30;;;;;;;12.70;7.43;;;;;;;-144.47;100.00;61586.06;6182747;23;20118;-75
2022/04/15 04:29:56;;;;;;;12.27;8.75;;;;;;;-144.47;100.00;61586.06;6181902;23;20005;-73
2022/04/15 04:32:21;;;;;;;15.27;8.13;;;;;;;-144.47;100.00;61586.06;6182492;23;20024;-76
2022/04/15 04:34:47;;;;;;;10.45;7.90;;;;;;;-144.47;100.00;61586.06;6182736;23;20040;-74
2022/04/15 04:37:12;;;;;;;16.45;8.40;;;;;;;-144.47;100.00;61586.06;6182166;23;20013;-75
2022/04/15 04:39:38;;;;;;;14.35;9.07;;;;;;;-144.47;100.00;61586.06;6182785;23;20039;-75
2022/04/15 04:42:04;;;;;;;14.85;8.98;;;;;;;-144.47;100.00;61586.06;6182352;23;20387;-75
2022/04/15 04:44:31;;;;;;;11.50;8.13;;;;;;;-144.47;100.00;61586.06;6182032;23;20067;-75
2022/04/15 04:46:58;;;;;;;10.30;7.55;;;;;;;-144.47;100.00;61586.06;6182550;23;20036;-73
2022/04/15 04:49:24;;;;;;;15.88;8.65;;;;;;;-144.47;100.00;61586.06;6182745;23;20465;-74
2022/04/15 04:51:50;;;;;;;11.38;7.95;;;;;;;-144.47;100.00;61586.06;6157534;23;20061;-73
2022/04/15 04:54:15;;;;;;;12.18;7.68;;;;;;;-144.47;100.00;61586.06;6183988;23;20908;-77
2022/04/15 04:56:40;;;;;;;13.82;7.70;;;;;;;-144.47;100.00;61586.06;6182658;23;20009;-75
2022/04/15 04:59:06;;;;;;;12.93;8.77;;;;;;;-144.47;100.00;61586.06;6157517;23;20009;-76
2022/04/15 05:01:31;;;;;;;15.15;8.25;;;;;;;-144.47;100.00;61586.06;6184419;23;20055;-75
2022/04/15 05:03:57;;;;;;;12.32;8.32;;;;;;;-144.47;100.00;61586.06;6180295;23;20005;-73
2022/04/15 05:06:22;;;;;;;11.98;7.63;;;;;;;-144.47;100.00;61586.06;6182030;23;20115;-75
2022/04/15 05:08:48;;;;;;;13.68;7.47;;;;;;;-144.47;100.00;61586.06;6182493;23;20338;-74
2022/04/15 05:11:13;;;;;;;15.48;8.15;;;;;;;-144.47;100.00;61586.06;6181195;23;20127;-74
2022/04/15 05:13:39;;;;;;;13.50;7.57;;;;;;;-144.47;100.00;61586.06;6182058;23;20303;-74
2022/04/15 05:16:04;;;;;;;14.43;8.27;;;;;;;-144.47;100.00;61586.06;6181690;23;20013;-74
2022/04/15 05:18:30;;;;;;;14.60;7.93;;;;;;;-144.47;100.00;61586.06;6182046;23;20386;-75
2022/04/15 05:20:55;;;;;;;13.15;8.57;;;;;;;-144.47;100.00;61586.06;6182451;23;20009;-75
2022/04/15 05:23:21;;;;;;;14.05;8.15;;;;;;;-144.47;100.00;61586.06;6181878;23;20005;-74
2022/04/15 05:25:46;;;;;;;13.70;8.35;;;;;;;-144.47;100.00;61586.06;6182193;23;20013;-74
2022/04/15 05:28:12;;;;;;;10.93;8.05;;;;;;;-144.47;100.00;61586.06;6181091;23;20030;-74
2022/04/15 05:30:37;;;;;;;10.65;8.70;;;;;;;-144.47;100.00;61586.06;6182101;23;20021;-74
2022/04/15 05:33:03;;;;;;;12.07;9.40;;;;;;;-144.47;100.00;61586.06;6181272;23;20438;-73
2022/04/15 05:35:29;;;;;;;10.73;9.60;;;;;;;-144.47;100.00;61586.06;6181989;23;20013;-76
2022/04/15 05:37:54;;;;;;;19.70;9.85;;;;;;;-144.47;100.00;61586.06;6182074;23;20013;-73
2022/04/15 05:40:20;;;;;;;15.15;10.48;;;;;;;-144.47;100.00;61586.06;6181628;23;20028;-75
2022/04/15 05:42:45;;;;;;;18.67;11.38;;;;;;;-144.47;100.00;61586.06;6182089;23;20016;-76
2022/04/15 05:45:11;;;;;;;16.88;11.45;;;;;;;-144.47;100.00;61586.06;6181287;23;20009;-74
2022/04/15 05:47:38;;;;;;;17.65;12.48;;;;;;;-144.47;100.00;61586.06;6180941;23;20023;-75
2022/04/15 05:50:03;;;;;;;19.58;11.55;;;;;;;-144.47;100.00;61586.06;6181161;23;20082;-74
2022/04/15 05:52:29;;;;;;;14.13;10.88;;;;;;;-144.47;100.00;61586.06;6181662;23;20387;-74
2022/04/15 05:54:54;;;;;;;16.27;11.85;;;;;;;-144.47;100.00;61586.06;6181808;23;20035;-74
2022/04/15 05:57:21;;;;;;;16.58;10.82;;;;;;;-144.47;100.00;61586.06;6155090;23;20334;-74
2022/04/15 05:59:46;;;;;;;16.88;11.48;;;;;;;-144.47;100.00;61586.06;6182036;23;20464;-74
2022/04/15 06:02:12;;;;;;;17.08;10.70;;;;;;;-144.47;100.00;61586.06;6181207;23;20025;-74
2022/04/15 06:04:37;;;;;;;14.85;11.25;;;;;;;-144.47;100.00;61586.06;6180307;23;20017;-76
2022/04/15 06:07:03;;;;;;;16.77;11.27;;;;;;;-144.47;100.00;61586.06;6180983;23;20013;-73
2022/04/15 06:09:28;;;;;;;15.40;11.27;;;;;;;-144.47;100.00;61586.06;6181453;23;20393;-75
2022/04/15 06:11:55;;;;;;;21.60;12.48;;;;;;;-144.47;100.00;61586.06;6155450;23;20641;-75
2022/04/15 06:14:22;;;;;;;21.33;11.95;;;;;;;-144.47;100.00;61586.06;6154867;23;20163;-75
2022/04/15 06:16:47;;;;;;;18.27;11.77;;;;;;;-144.47;100.00;61586.06;6181770;23;20013;-74
2022/04/15 06:19:14;;;;;;;16.02;11.82;;;;;;;-144.47;100.00;61586.06;6180502;23;20009;-73
2022/04/15 06:21:40;;;;;;;19.42;12.30;;;;;;;-144.47;100.00;61586.06;6181453;23;20000;-74
2022/04/15 06:24:08;;;;;;;21.20;11.55;;;;;;;-144.47;100.00;61586.06;6129917;23;20464;-74
2022/04/15 06:26:34;;;;;;;21.25;12.02;;;;;;;-144.47;100.00;61586.06;6181647;23;20017;-74
2022/04/15 06:29:00;;;;;;;17.13;11.57;;;;;;;-144.47;100.00;61586.06;6181560;23;20032;-74
2022/04/15 06:31:26;;;;;;;19.60;11.43;;;;;;;-144.47;100.00;61586.06;6181521;23;20032;-75
2022/04/15 06:33:52;;;;;;;16.20;11.25;;;;;;;-144.47;100.00;61586.06;6181540;23;20488;-73
2022/04/15 06:36:19;;;;;;;15.93;11.52;;;;;;;-144.47;100.00;61586.06;6180587;23;20032;-74
2022/04/15 06:38:44;;;;;;;19.90;12.07;;;;;;;-144.47;100.00;61586.06;6181255;23;20395;-76
2022/04/15 06:41:10;;;;;;;17.80;12.30;;;;;;;-144.47;100.00;61586.06;6181328;23;20040;-74
2022/04/15 06:43:35;;;;;;;16.48;11.18;;;;;;;-144.47;100.00;61586.06;6181629;23;20081;-74
2022/04/15 06:46:03;;;;;;;20.98;12.43;;;;;;;-144.47;100.00;61586.06;6181245;23;20414;-75
2022/04/15 06:48:29;;;;;;;22.17;11.98;;;;;;;-144.47;100.00;61586.06;6181405;23;20426;-73
2022/04/15 06:50:55;;;;;;;16.17;11.77;;;;;;;-144.47;100.00;61586.06;6154044;23;20067;-76
2022/04/15 06:53:23;;;;;;;21.65;12.75;;;;;;;-144.47;100.00;61586.06;6180577;23;20459;-77
2022/04/15 06:55:50;;;;;;;18.77;12.75;;;;;;;-144.47;100.00;61586.06;6155269;23;20017;-73
2022/04/15 06:58:15;;;;;;;17.17;11.85;;;;;;;-144.47;100.00;61586.06;6180854;23;20410;-73
2022/04/15 07:00:41;;;;;;;28.70;14.25;;;;;;;-144.47;100.00;61586.06;6181407;23;20010;-74
2022/04/15 07:03:06;;;;;;;20.55;13.18;;;;;;;-144.47;100.00;61586.06;6180400;23;20009;-76
2022/04/15 07:05:32;;;;;;;18.35;12.40;;;;;;;-144.47;100.00;61586.06;6180833;23;20084;-75
2022/04/15 07:07:58;;;;;;;25.58;13.50;;;;;;;-144.47;100.00;61586.06;6180375;23;20013;-74
2022/04/15 07:10:23;;;;;;;23.23;14.45;;;;;;;-144.47;100.00;61586.06;6180661;23;20101;-76
2022/04/15 07:12:49;;;;;;;23.25;13.10;;;;;;;-144.47;100.00;61586.06;6180990;23;20160;-75
2022/04/15 07:15:14;;;;;;;21.52;13.38;;;;;;;-144.47;100.00;61586.06;6180727;23;20490;-76
2022/04/15 07:17:40;;;;;;;25.00;14.32;;;;;;;-144.47;100.00;61586.06;6154694;23;20457;-76
2022/04/15 07:20:06;;;;;;;19.92;13.85;;;;;;;-144.47;100.00;61586.06;6180664;23;20005;-75
2022/04/15 07:22:32;;;;;;;20.40;13.82;;;;;;;-144.47;100.00;61586.06;6180244;23;20005;-74
2022/04/15 07:24:57;;;;;;;21.27;13.48;;;;;;;-144.47;100.00;61586.06;6180907;23;20008;-74
2022/04/15 07:27:23;;;;;;;19.75;13.68;;;;;;;-144.47;100.00;61586.06;6180890;23;20009;-75
2022/04/15 07:29:48;;;;;;;20.73;14.35;;;;;;;-144.47;100.00;61586.06;6180935;23;20368;-75
2022/04/15 07:32:23;;;;;;;20.77;14.07;;;;;;;-144.47;100.00;61586.06;6180740;23;20005;-75
2022/04/15 07:34:51;;;;;;;24.73;14.32;;;;;;;-144.47;100.00;61586.06;6180887;23;20013;-75
2022/04/15 07:37:17;;;;;;;22.77;13.45;;;;;;;-144.47;100.00;61586.06;6179613;23;20024;-76
2022/04/15 07:39:43;;;;;;;27.80;16.10;;;;;;;-144.47;100.00;61586.06;6180527;23;20013;-75
2022/04/15 07:42:11;;;;;;;22.02;14.00;;;;;;;-144.47;100.00;61586.06;6180262;23;20009;-75
2022/04/15 07:44:40;;;;;;;28.92;14.75;;;;;;;-144.47;100.00;61586.06;6180724;23;20085;-76
2022/04/15 07:47:07;;;;;;;28.20;15.95;;;;;;;-144.47;100.00;61586.06;6180366;23;20005;-75
2022/04/15 07:49:34;;;;;;;25.65;15.57;;;;;;;-144.47;100.00;61586.06;6180720;23;20104;-75
2022/04/15 07:52:01;;;;;;;23.95;15.90;;;;;;;-144.47;100.00;61586.06;6180613;23;20107;-76
2022/04/15 07:54:26;;;;;;;26.02;15.60;;;;;;;-144.47;100.00;61586.06;6180016;23;20160;-74
2022/04/15 07:56:52;;;;;;;25.27;16.48;;;;;;;-144.47;100.00;61586.06;6180633;23;20123;-76
2022/04/15 07:59:18;;;;;;;22.88;15.55;;;;;;;-144.47;100.00;61586.06;6129405;23;20013;-75
2022/04/15 08:01:43;;;;;;;26.27;16.98;;;;;;;-144.47;100.00;61586.06;6180730;23;20034;-75
2022/04/15 08:04:09;;;;;;;23.83;15.95;;;;;;;-144.47;100.00;61586.06;6179897;23;20020;-75
2022/04/15 08:06:34;;;;;;;28.10;16.85;;;;;;;-144.47;100.00;61586.06;6180612;23;20093;-73
2022/04/15 08:09:00;;;;;;;30.95;17.30;;;;;;;-144.47;100.00;61586.06;6179015;23;20013;-77
2022/04/15 08:11:27;;;;;;;27.83;15.80;;;;;;;-144.47;100.00;61586.06;6180116;23;20102;-75
2022/04/15 08:13:54;;;;;;;24.33;16.92;;;;;;;-144.47;100.00;61586.06;6180609;23;20278;-75
2022/04/15 08:16:20;;;;;;;26.25;16.83;;;;;;;-144.47;100.00;61586.06;6180105;23;20080;-75
2022/04/15 08:18:46;;;;;;;28.50;16.15;;;;;;;-144.47;100.00;61586.06;6180067;23;20013;-74
2022/04/15 08:21:12;;;;;;;30.58;17.08;;;;;;;-144.47;100.00;61586.06;6153399;23;20052;-76
2022/04/15 08:23:38;;;;;;;28.50;17.38;;;;;;;-144.47;100.00;61586.06;6180577;23;20008;-76
2022/04/15 08:26:03;;;;;;;27.25;16.88;;;;;;;-144.47;100.00;61586.06;6179908;23;20016;-75
2022/04/15 08:28:29;;;;;;;26.80;16.77;;;;;;;-144.47;100.00;61586.06;6180958;23;20012;-75
2022/04/15 08:30:54;;;;;;;29.70;16.60;;;;;;;-144.47;100.00;61586.06;6182876;23;20079;-76
2022/04/15 08:33:20;;;;;;;26.73;17.17;;;;;;;-144.47;100.00;61586.06;6182232;23;20056;-75
2022/04/15 08:35:47;;;;;;;26.23;16.15;;;;;;;-144.47;100.00;61586.06;6180595;23;19997;-74
2022/04/15 08:38:13;;;;;;;24.92;16.50;;;;;;;-144.47;100.00;61586.06;6179817;23;20118;-75
2022/04/15 08:40:47;;;;;;;22.95;16.50;;;;;;;-144.47;100.00;61586.06;6180046;23;20008;-74
2022/04/15 08:43:13;;;;;;;30.63;17.08;;;;;;;-144.47;100.00;61586.06;6179856;23;20046;-75
2022/04/15 08:45:41;;;;;;;30.50;18.23;;;;;;;-144.47;100.00;61586.06;6153626;23;20059;-75
2022/04/15 08:48:08;;;;;;;30.48;16.40;;;;;;;-144.47;100.00;61586.06;6180128;23;20107;-73
2022/04/15 08:50:34;;;;;;;26.77;16.85;;;;;;;-144.47;100.00;61586.06;6154124;23;20048;-75
2022/04/15 08:53:01;;;;;;;31.48;18.15;;;;;;;-144.47;100.00;61586.06;6180385;23;20092;-75
2022/04/15 08:55:28;;;;;;;29.58;17.95;;;;;;;-144.47;100.00;61586.06;6153776;23;20418;-74
2022/04/15 08:57:55;;;;;;;29.00;17.92;;;;;;;-144.47;100.00;61586.06;6180084;23;20402;-75
2022/04/15 09:00:21;;;;;;;28.75;16.95;;;;;;;-144.47;100.00;61586.06;6178897;23;20001;-75
2022/04/15 09:02:49;;;;;;;31.90;16.75;;;;;;;-144.47;100.00;61586.06;6181555;23;20087;-74
2022/04/15 09:05:19;;;;;;;27.52;17.63;;;;;;;-144.47;100.00;61586.06;6155236;23;20013;-75
2022/04/15 09:07:45;;;;;;;;;;;;;;;-144.47;100.00;61586.06;6182820;23;20044;-72
2022/04/15 09:10:11;;;;;;;32.10;17.77;;;;;;;-144.47;100.00;61586.06;6181349;23;19908;-73
2022/04/15 09:12:39;;;;;;;31.65;17.38;;;;;;;-144.47;100.00;61586.06;6181897;23;20009;-74
2022/04/15 09:15:08;;;;;;;34.42;17.80;;;;;;;-144.47;100.00;61586.06;6181429;23;20001;-77
2022/04/15 09:17:49;;;;;;;33.28;19.05;;;;;;;-144.47;100.00;61586.06;6156250;23;20059;-74
2022/04/15 09:20:16;;;;;;;30.63;17.08;;;;;;;-144.47;100.00;61586.06;6183586;23;20063;-75
2022/04/15 09:22:42;;;;;;;38.67;17.92;;;;;;;-144.47;100.00;61586.06;6182289;23;20013;-75
2022/04/15 09:25:10;;;;;;;31.38;17.05;;;;;;;-144.47;100.00;61586.06;6182405;23;20079;-76
2022/04/15 09:27:36;;;;;;;32.05;17.55;;;;;;;-144.47;100.00;61586.06;6181957;23;20048;-75
2022/04/15 09:30:04;;;;;;;32.45;18.10;;;;;;;-144.47;100.00;61586.06;6181542;23;20014;-75
2022/04/15 09:32:29;;;;;;;33.83;18.27;;;;;;;-144.47;100.00;61586.06;6181850;23;20399;-74
2022/04/15 09:35:00;;;;;;;25.00;14.95;;;;;;;-144.47;100.00;61586.06;6155665;23;20008;-75
2022/04/15 09:37:27;;;;;;;33.00;16.70;;;;;;;-144.47;100.00;61586.06;6154930;23;20045;-77
2022/04/15 09:40:06;;;;;;;31.10;16.90;;;;;;;-144.47;100.00;61586.06;6182134;23;20028;-74
2022/04/15 09:42:34;;;;;;;27.77;15.88;;;;;;;-144.47;100.00;61586.06;6181212;23;20009;-75
2022/04/15 09:45:14;;;;;;;35.60;18.17;;;;;;;-144.47;100.00;61586.06;6181444;23;20017;-76
2022/04/15 09:47:40;;;;;;;26.60;14.95;;;;;;;-144.47;100.00;61586.06;6180941;23;20020;-75
2022/04/15 09:50:30;;;;;;;31.60;16.05;;;;;;;-144.47;100.00;61586.06;6155137;23;20013;-74
2022/04/15 09:53:09;;;;;;;32.70;16.63;;;;;;;-144.47;100.00;61586.06;6182481;23;20431;-75
2022/04/15 09:55:36;;;;;;;25.53;15.20;;;;;;;-144.47;100.00;61586.06;6181959;23;20009;-75
2022/04/15 09:58:07;;;;;;;27.33;15.27;;;;;;;-144.47;100.00;61586.06;6181330;23;20076;-77
2022/04/15 10:00:35;;;;;;;26.80;13.55;;;;;;;-144.47;100.00;61586.06;6181866;23;20031;-75
2022/04/15 10:03:03;;;;;;;23.98;12.23;;;;;;;-144.47;100.00;61586.06;6181472;23;20457;-74
2022/04/15 10:05:30;;;;;;;24.25;12.48;;;;;;;-144.47;100.00;61586.06;6181030;23;20091;-76
2022/04/15 10:07:56;;;;;;;28.70;13.52;;;;;;;-144.47;100.00;61586.06;6181899;23;20005;-75
2022/04/15 10:10:22;;;;;;;25.33;14.40;;;;;;;-144.47;100.00;61586.06;6181370;23;20017;-75
2022/04/15 10:12:49;;;;;;;25.73;12.82;;;;;;;-144.47;100.00;61586.06;6181146;23;20016;-74
2022/04/15 10:15:17;;;;;;;26.63;12.63;;;;;;;-144.47;100.00;61586.06;6181162;23;20016;-75
2022/04/15 10:17:42;;;;;;;25.38;13.18;;;;;;;-144.47;100.00;61586.06;6182041;23;20136;-75
2022/04/15 10:20:08;;;;;;;23.88;12.52;;;;;;;-144.47;100.00;61586.06;6180721;23;20106;-74
2022/04/15 10:22:39;;;;;;;25.20;12.25;;;;;;;-144.47;100.00;61586.06;6181658;23;20024;-76
2022/04/15 10:25:06;;;;;;;24.85;12.00;;;;;;;-144.47;100.00;61586.06;6181257;23;20008;-76
2022/04/15 10:27:32;;;;;;;32.38;13.60;;;;;;;-144.47;100.00;61586.06;6180835;23;20374;-76
2022/04/15 10:30:20;;;;;;;25.35;12.77;;;;;;;-144.47;100.00;61586.06;6181392;23;20016;-75
2022/04/15 10:32:51;;;;;;;26.00;12.02;;;;;;;-144.47;100.00;61586.06;6181212;23;20025;-75
2022/04/15 10:35:23;;;;;;;29.00;12.57;;;;;;;-144.47;100.00;61586.06;6180992;23;20097;-78
2022/04/15 10:38:01;;;;;;;19.27;10.98;;;;;;;-144.47;100.00;61586.06;6181307;23;20032;-75
2022/04/15 10:40:32;;;;;;;20.17;9.70;;;;;;;-144.47;100.00;61586.06;6181552;23;20013;-77
2022/04/15 10:43:19;;;;;;;17.23;9.02;;;;;;;-144.47;100.00;61586.06;6181235;23;20009;-75
2022/04/15 10:45:45;;;;;;;18.83;9.45;;;;;;;-144.47;100.00;61586.06;6180763;23;20020;-76
2022/04/15 10:48:11;;;;;;;18.95;10.75;;;;;;;-144.47;100.00;61586.06;6180462;23;20006;-77
2022/04/15 10:50:39;;;;;;;18.98;9.20;;;;;;;-144.47;100.00;61586.06;6181390;23;20009;-76
2022/04/15 10:53:17;;;;;;;17.75;9.63;;;;;;;-144.47;100.00;61586.06;6180311;23;20013;-75
2022/04/15 10:55:52;;;;;;;18.42;9.45;;;;;;;-144.47;100.00;61586.06;6181407;23;20107;-76
2022/04/15 10:58:19;;;;;;;20.70;9.57;;;;;;;-144.47;100.00;61586.06;6180434;23;20427;-75